createdAt,value
2018-12-29T00:01:28.997Z,28.10
2018-12-29T00:03:57.457Z,28.23
2018-12-29T00:06:25.910Z,29.27
2018-12-29T00:08:54.403Z,28.87
2018-12-29T00:11:22.910Z,29.03
2018-12-29T00:13:51.327Z,29.27
2018-12-29T00:16:19.779Z,28.27
2018-12-29T00:18:48.345Z,29.83
2018-12-29T00:21:16.816Z,30.67
2018-12-29T00:23:45.309Z,31.20
2018-12-29T00:26:13.790Z,29.53
2018-12-29T00:28:42.252Z,29.67
2018-12-29T00:31:10.706Z,30.80
2018-12-29T00:33:39.160Z,30.13
2018-12-29T00:36:07.610Z,31.93
2018-12-29T00:38:36.144Z,30.77
2018-12-29T00:41:04.599Z,29.83
2018-12-29T00:43:33.046Z,29.47
2018-12-29T00:46:01.508Z,30.00
2018-12-29T00:48:29.968Z,30.10
2018-12-29T00:50:58.480Z,28.50
2018-12-29T00:53:26.977Z,28.80
2018-12-29T00:55:55.438Z,30.10
2018-12-29T00:58:23.890Z,29.73
2018-12-29T01:00:52.368Z,28.43
2018-12-29T01:03:20.818Z,26.83
2018-12-29T01:05:49.299Z,26.93
2018-12-29T01:08:17.721Z,26.20
2018-12-29T01:10:46.192Z,25.30
2018-12-29T01:13:17.672Z,26.37
2018-12-29T01:15:46.226Z,25.27
2018-12-29T01:18:14.706Z,25.53
2018-12-29T01:20:43.135Z,24.87
2018-12-29T01:23:11.547Z,26.47
2018-12-29T01:25:39.949Z,26.93
2018-12-29T01:28:08.624Z,24.73
2018-12-29T01:30:37.106Z,24.87
2018-12-29T01:33:05.547Z,26.20
2018-12-29T01:35:33.958Z,26.87
2018-12-29T01:38:02.369Z,28.07
2018-12-29T01:40:30.778Z,28.50
2018-12-29T01:42:59.192Z,27.73
2018-12-29T01:45:27.601Z,28.77
2018-12-29T01:47:56.009Z,29.17
2018-12-29T01:50:24.431Z,27.80
2018-12-29T01:52:52.852Z,27.27
2018-12-29T01:55:21.265Z,25.40
2018-12-29T01:57:49.687Z,28.30
2018-12-29T02:00:18.101Z,27.63
2018-12-29T02:02:46.612Z,28.67
2018-12-29T02:05:26.941Z,27.73
2018-12-29T02:07:55.377Z,27.50
2018-12-29T02:10:23.782Z,27.20
2018-12-29T02:12:52.189Z,27.97
2018-12-29T02:15:24.684Z,25.33
2018-12-29T02:17:50.739Z,27.30
2018-12-29T02:20:19.163Z,28.23
2018-12-29T02:22:47.582Z,27.60
2018-12-29T02:25:15.994Z,29.20
2018-12-29T02:27:44.404Z,28.60
2018-12-29T02:30:12.842Z,27.50
2018-12-29T02:32:41.244Z,27.43
2018-12-29T02:35:09.665Z,26.57
2018-12-29T02:37:38.083Z,27.07
2018-12-29T02:40:06.565Z,26.97
2018-12-29T02:42:34.983Z,28.27
2018-12-29T02:45:03.395Z,28.43
2018-12-29T02:47:31.811Z,27.00
2018-12-29T02:50:00.398Z,28.83
2018-12-29T02:52:28.806Z,27.70
2018-12-29T02:54:57.228Z,28.50
2018-12-29T02:57:25.640Z,28.07
2018-12-29T02:59:54.053Z,28.50
2018-12-29T03:02:22.457Z,29.23
2018-12-29T03:04:50.886Z,28.67
2018-12-29T03:07:19.300Z,26.10
2018-12-29T03:09:47.998Z,27.17
2018-12-29T03:12:16.414Z,29.60
2018-12-29T03:14:44.822Z,28.00
2018-12-29T03:17:13.251Z,28.83
2018-12-29T03:19:41.664Z,28.27
2018-12-29T03:22:10.098Z,26.57
2018-12-29T03:24:38.497Z,28.13
2018-12-29T03:27:06.907Z,26.87
2018-12-29T03:29:35.323Z,27.90
2018-12-29T03:32:03.743Z,26.83
2018-12-29T03:34:32.151Z,27.67
2018-12-29T03:37:00.565Z,28.83
2018-12-29T03:39:28.979Z,26.97
2018-12-29T03:41:57.385Z,26.53
2018-12-29T03:44:25.798Z,28.23
2018-12-29T03:46:54.218Z,27.27
2018-12-29T03:49:22.622Z,29.77
2018-12-29T03:51:51.044Z,28.50
2018-12-29T03:54:19.464Z,27.83
2018-12-29T03:56:47.878Z,28.47
2018-12-29T03:59:16.286Z,27.33
2018-12-29T04:01:44.707Z,28.77
2018-12-29T04:04:13.115Z,28.27
2018-12-29T04:06:41.527Z,26.40
2018-12-29T04:09:33.242Z,27.07
2018-12-29T04:12:04.889Z,25.80
2018-12-29T04:14:34.856Z,26.53
2018-12-29T04:17:03.266Z,25.40
2018-12-29T04:19:31.678Z,28.70
2018-12-29T04:22:00.113Z,25.23
2018-12-29T04:24:28.527Z,25.83
2018-12-29T04:26:56.935Z,26.40
2018-12-29T04:29:25.349Z,28.03
2018-12-29T04:31:53.765Z,28.00
2018-12-29T04:34:22.189Z,28.37
2018-12-29T04:36:50.606Z,29.47
2018-12-29T04:39:19.030Z,30.70
2018-12-29T04:41:47.445Z,30.67
2018-12-29T04:44:15.870Z,29.87
2018-12-29T04:46:44.546Z,31.47
2018-12-29T04:49:12.969Z,29.73
2018-12-29T04:51:41.385Z,30.40
2018-12-29T04:54:09.840Z,30.73
2018-12-29T04:56:38.263Z,30.37
2018-12-29T04:59:06.692Z,32.10
2018-12-29T05:01:35.101Z,31.00
2018-12-29T05:04:03.526Z,31.53
2018-12-29T05:06:31.925Z,31.33
2018-12-29T05:09:00.374Z,30.33
2018-12-29T05:11:28.783Z,30.27
2018-12-29T05:13:57.198Z,31.50
2018-12-29T05:16:25.611Z,30.23
2018-12-29T05:18:54.042Z,31.90
2018-12-29T05:21:22.453Z,32.07
2018-12-29T05:23:50.854Z,30.73
2018-12-29T05:26:19.265Z,32.10
2018-12-29T05:28:47.680Z,32.40
2018-12-29T05:31:16.098Z,32.63
2018-12-29T05:33:44.515Z,30.83
2018-12-29T05:36:12.942Z,31.70
2018-12-29T05:38:41.348Z,32.33
2018-12-29T05:41:09.778Z,32.23
2018-12-29T05:43:38.177Z,31.93
2018-12-29T05:46:06.593Z,32.73
2018-12-29T05:48:35.015Z,33.83
2018-12-29T05:51:03.450Z,31.50
2018-12-29T05:53:31.862Z,33.53
2018-12-29T05:56:00.286Z,33.33
2018-12-29T05:58:28.702Z,30.80
2018-12-29T06:00:57.374Z,34.07
2018-12-29T06:03:25.782Z,32.67
2018-12-29T06:05:54.209Z,33.10
2018-12-29T06:08:22.613Z,35.13
2018-12-29T06:10:51.039Z,33.73
2018-12-29T06:13:19.449Z,33.97
2018-12-29T06:15:47.863Z,32.70
2018-12-29T06:18:16.274Z,35.17
2018-12-29T06:20:44.677Z,33.93
2018-12-29T06:23:13.093Z,33.47
2018-12-29T06:25:41.495Z,33.07
2018-12-29T06:28:09.911Z,32.63
2018-12-29T06:30:38.313Z,32.47
2018-12-29T06:33:06.729Z,31.57
2018-12-29T06:35:35.135Z,30.70
2018-12-29T06:38:03.544Z,33.13
2018-12-29T06:40:31.959Z,31.30
2018-12-29T06:43:00.374Z,31.73
2018-12-29T06:45:28.785Z,36.13
2018-12-29T06:47:57.197Z,38.30
2018-12-29T06:50:25.615Z,34.43
2018-12-29T06:52:54.033Z,33.63
2018-12-29T06:55:22.456Z,33.97
2018-12-29T06:57:50.874Z,33.93
2018-12-29T07:00:19.281Z,32.60
2018-12-29T07:02:47.705Z,34.53
2018-12-29T07:05:16.104Z,32.57
2018-12-29T07:07:44.526Z,31.20
2018-12-29T07:10:12.934Z,32.50
2018-12-29T07:12:41.364Z,31.23
2018-12-29T07:15:09.769Z,32.43
2018-12-29T07:17:38.198Z,32.70
2018-12-29T07:20:06.615Z,32.63
2018-12-29T07:22:35.028Z,32.20
2018-12-29T07:25:03.441Z,32.23
2018-12-29T07:27:31.858Z,31.93
2018-12-29T07:30:19.678Z,33.47
2018-12-29T07:33:07.487Z,30.63
2018-12-29T07:35:55.272Z,32.93
2018-12-29T07:38:43.075Z,35.90
2018-12-29T07:41:30.881Z,33.87
2018-12-29T07:44:18.765Z,33.37
2018-12-29T07:47:06.570Z,35.50
2018-12-29T07:49:54.365Z,34.47
2018-12-29T07:52:42.156Z,33.70
2018-12-29T07:55:30.035Z,32.13
2018-12-29T07:58:17.825Z,33.67
2018-12-29T08:01:05.619Z,32.37
2018-12-29T08:03:45.910Z,32.03
2018-12-29T08:06:26.538Z,33.33
2018-12-29T08:09:07.137Z,32.37
2018-12-29T08:11:47.856Z,31.90
2018-12-29T08:14:28.532Z,35.27
2018-12-29T08:17:11.217Z,33.83
2018-12-29T08:19:52.340Z,33.30
2018-12-29T08:22:33.241Z,33.07
2018-12-29T08:25:14.349Z,33.07
2018-12-29T08:27:55.312Z,32.57
2018-12-29T08:30:36.008Z,32.33
2018-12-29T08:33:16.859Z,31.93
2018-12-29T08:35:57.581Z,31.40
2018-12-29T08:38:38.414Z,31.90
2018-12-29T08:41:19.808Z,30.50
2018-12-29T08:44:00.210Z,29.33
2018-12-29T08:46:40.831Z,29.77
2018-12-29T08:49:21.744Z,30.23
2018-12-29T08:52:02.971Z,29.53
2018-12-29T08:54:44.060Z,29.33
2018-12-29T08:57:25.036Z,29.77
2018-12-29T09:00:08.539Z,30.27
2018-12-29T09:02:49.708Z,30.90
2018-12-29T09:05:30.325Z,29.13
2018-12-29T09:08:11.156Z,28.00
2018-12-29T09:10:52.201Z,29.77
2018-12-29T09:13:33.255Z,28.90
2018-12-29T09:16:14.316Z,29.40
2018-12-29T09:18:54.926Z,29.53
2018-12-29T09:21:35.652Z,29.63
2018-12-29T09:24:16.625Z,30.90
2018-12-29T09:26:57.498Z,31.20
2018-12-29T09:29:38.656Z,28.83
2018-12-29T09:32:19.499Z,27.77
2018-12-29T09:35:00.384Z,29.10
2018-12-29T09:37:41.146Z,29.13
2018-12-29T09:40:22.259Z,28.63
2018-12-29T09:43:03.126Z,27.23
2018-12-29T09:45:43.700Z,28.20
2018-12-29T09:48:23.958Z,27.60
2018-12-29T09:51:04.876Z,26.47
2018-12-29T09:53:45.619Z,27.47
2018-12-29T09:56:26.660Z,25.97
2018-12-29T09:59:07.345Z,26.27
2018-12-29T10:01:48.344Z,27.07
2018-12-29T10:04:28.839Z,26.67
2018-12-29T10:07:09.774Z,26.23
2018-12-29T10:09:50.628Z,27.57
2018-12-29T10:12:31.450Z,25.23
2018-12-29T10:15:12.270Z,23.83
2018-12-29T10:17:52.974Z,25.63
2018-12-29T10:20:33.934Z,26.20
2018-12-29T10:23:14.795Z,23.03
2018-12-29T10:25:55.403Z,22.07
2018-12-29T10:28:36.042Z,21.37
2018-12-29T10:31:17.001Z,21.70
2018-12-29T10:33:57.572Z,22.23
2018-12-29T10:36:38.288Z,21.67
2018-12-29T10:39:20.161Z,22.60
2018-12-29T10:42:01.207Z,23.23
2018-12-29T10:44:42.119Z,23.23
2018-12-29T10:47:22.990Z,21.77
2018-12-29T10:50:03.687Z,20.73
2018-12-29T10:52:44.832Z,21.10
2018-12-29T10:55:25.579Z,19.10
2018-12-29T10:58:06.508Z,19.47
2018-12-29T11:00:47.748Z,21.40
2018-12-29T11:03:28.698Z,19.40
2018-12-29T11:06:09.134Z,19.73
2018-12-29T11:08:50.221Z,19.27
2018-12-29T11:11:30.910Z,18.10
2018-12-29T11:14:11.852Z,17.90
2018-12-29T11:16:52.696Z,16.83
2018-12-29T11:19:33.660Z,17.60
2018-12-29T11:22:14.277Z,17.40
2018-12-29T11:24:55.068Z,17.07
2018-12-29T11:27:35.843Z,16.20
2018-12-29T11:30:16.805Z,16.83
2018-12-29T11:32:57.229Z,16.67
2018-12-29T11:35:38.195Z,17.63
2018-12-29T11:38:18.855Z,17.13
2018-12-29T11:40:59.734Z,17.23
2018-12-29T11:43:40.539Z,18.10
2018-12-29T11:46:21.289Z,16.77
2018-12-29T11:49:02.328Z,16.00
2018-12-29T11:51:43.180Z,16.67
2018-12-29T11:54:25.312Z,15.23
2018-12-29T11:57:06.942Z,16.53
2018-12-29T11:59:47.652Z,16.17
2018-12-29T12:02:28.525Z,16.83
2018-12-29T12:05:09.560Z,16.53
2018-12-29T12:07:50.554Z,17.70
2018-12-29T12:10:31.346Z,16.13
2018-12-29T12:13:12.049Z,16.47
2018-12-29T12:15:52.686Z,18.80
2018-12-29T12:18:33.239Z,16.80
2018-12-29T12:21:14.224Z,17.47
2018-12-29T12:23:55.087Z,16.60
2018-12-29T12:26:35.952Z,16.20
2018-12-29T12:29:16.813Z,16.93
2018-12-29T12:31:57.627Z,17.63
2018-12-29T12:34:38.588Z,17.73
2018-12-29T12:37:19.778Z,17.70
2018-12-29T12:40:00.552Z,17.47
2018-12-29T12:42:41.373Z,17.77
2018-12-29T12:45:22.323Z,18.33
2018-12-29T12:48:05.274Z,18.13
2018-12-29T12:50:45.662Z,18.03
2018-12-29T12:53:26.352Z,17.03
2018-12-29T12:56:07.033Z,18.70
2018-12-29T12:58:47.759Z,17.40
2018-12-29T13:01:28.552Z,17.63
2018-12-29T13:04:09.558Z,17.40
2018-12-29T13:06:50.128Z,16.93
2018-12-29T13:09:30.657Z,16.90
2018-12-29T13:12:11.215Z,16.40
2018-12-29T13:14:52.053Z,16.30
2018-12-29T13:17:32.766Z,16.83
2018-12-29T13:20:13.564Z,17.83
2018-12-29T13:22:54.671Z,18.30
2018-12-29T13:25:35.434Z,17.10
2018-12-29T13:28:16.186Z,17.33
2018-12-29T13:30:56.838Z,18.80
2018-12-29T13:33:38.040Z,18.10
2018-12-29T13:36:18.463Z,18.27
2018-12-29T13:38:59.211Z,17.83
2018-12-29T13:41:39.648Z,18.43
2018-12-29T13:44:20.554Z,18.87
2018-12-29T13:47:01.203Z,18.77
2018-12-29T13:49:41.880Z,17.53
2018-12-29T13:52:22.630Z,17.77
2018-12-29T13:55:03.384Z,17.80
2018-12-29T13:57:43.901Z,16.70
2018-12-29T14:00:24.878Z,18.30
2018-12-29T14:03:05.404Z,18.13
2018-12-29T14:11:44.203Z,18.43
2018-12-29T14:14:24.994Z,19.07
2018-12-29T14:23:30.468Z,16.67
2018-12-29T14:26:11.349Z,18.23
2018-12-29T14:28:52.271Z,17.13
2018-12-29T14:31:33.047Z,16.90
2018-12-29T14:34:13.911Z,18.23
2018-12-29T14:36:54.523Z,16.77
2018-12-29T14:39:35.703Z,16.57
2018-12-29T14:45:36.051Z,18.43
2018-12-29T14:48:16.484Z,18.23
2018-12-29T14:50:56.925Z,19.03
2018-12-29T14:53:38.194Z,18.23
2018-12-29T14:59:26.611Z,19.53
2018-12-29T15:02:07.319Z,20.43
2018-12-29T15:04:48.053Z,19.90
2018-12-29T15:07:28.787Z,19.97
2018-12-29T15:10:09.301Z,20.80
2018-12-29T15:12:49.991Z,19.60
2018-12-29T15:15:30.661Z,20.17
2018-12-29T15:18:11.531Z,19.00
2018-12-29T15:20:52.467Z,18.83
2018-12-29T15:23:33.192Z,20.70
2018-12-29T15:26:14.630Z,19.87
2018-12-29T15:28:54.986Z,19.33
2018-12-29T15:31:35.798Z,19.43
2018-12-29T15:34:16.714Z,18.90
2018-12-29T15:36:57.505Z,20.23
2018-12-29T15:39:38.332Z,21.83
2018-12-29T15:42:19.240Z,21.77
2018-12-29T15:44:59.707Z,21.40
2018-12-29T15:47:40.605Z,20.50
2018-12-29T15:50:21.406Z,21.60
2018-12-29T15:53:03.122Z,21.90
2018-12-29T15:55:43.872Z,21.00
2018-12-29T15:58:24.617Z,22.07
2018-12-29T16:01:05.305Z,24.70
2018-12-29T16:03:45.896Z,27.03
2018-12-29T16:06:26.698Z,30.30
2018-12-29T16:09:07.630Z,27.47
2018-12-29T16:11:48.865Z,26.30
2018-12-29T16:14:35.438Z,25.70
2018-12-29T16:17:12.070Z,25.30
2018-12-29T16:19:52.971Z,25.27
2018-12-29T16:22:33.659Z,26.30
2018-12-29T16:25:14.229Z,25.97
2018-12-29T16:27:55.168Z,26.20
2018-12-29T16:30:36.115Z,27.13
2018-12-29T16:33:16.672Z,24.80
2018-12-29T16:35:57.434Z,26.87
2018-12-29T16:38:37.897Z,26.00
2018-12-29T16:41:18.619Z,28.53
2018-12-29T16:43:59.676Z,27.03
2018-12-29T16:46:40.636Z,29.03
2018-12-29T16:49:40.920Z,31.17
2018-12-29T16:55:46.223Z,32.00
2018-12-29T17:04:55.896Z,30.33
2018-12-29T17:13:57.704Z,27.90
2018-12-29T17:16:38.345Z,28.33
2018-12-29T17:19:18.942Z,29.40
2018-12-29T17:25:10.394Z,27.73
2018-12-29T17:31:39.850Z,26.90
2018-12-29T17:37:56.724Z,27.20
2018-12-29T17:40:44.615Z,29.83
2018-12-29T17:43:32.492Z,28.83
2018-12-29T17:46:56.302Z,27.47
2018-12-29T17:50:23.415Z,28.20
2018-12-29T17:53:11.307Z,28.80
2018-12-29T17:56:17.255Z,32.90
2018-12-29T17:59:42.489Z,29.40
2018-12-29T18:08:47.427Z,26.97
2018-12-29T18:14:52.710Z,24.93
2018-12-29T18:17:33.753Z,26.87
2018-12-29T18:23:33.668Z,23.87
2018-12-29T18:26:02.274Z,25.63
2018-12-29T18:28:30.827Z,26.00
2018-12-29T18:30:59.375Z,27.43
2018-12-29T18:33:27.921Z,25.60
2018-12-29T18:35:56.763Z,25.37
2018-12-29T18:38:25.313Z,23.30
2018-12-29T18:40:53.858Z,22.20
2018-12-29T18:43:22.423Z,23.17
2018-12-29T18:45:50.989Z,22.83
2018-12-29T18:48:19.539Z,23.70
2018-12-29T18:50:48.386Z,22.60
2018-12-29T18:53:16.957Z,21.47
2018-12-29T18:55:45.506Z,23.00
2018-12-29T18:58:14.067Z,21.70
2018-12-29T19:00:42.600Z,20.93
2018-12-29T19:03:11.474Z,22.10
2018-12-29T19:05:40.005Z,21.53
2018-12-29T19:08:08.546Z,21.33
2018-12-29T19:10:37.344Z,23.67
2018-12-29T19:13:06.086Z,24.20
2018-12-29T19:15:35.191Z,22.77
2018-12-29T19:18:03.768Z,25.83
2018-12-29T19:20:32.624Z,22.03
2018-12-29T19:23:01.356Z,21.17
2018-12-29T19:25:30.222Z,24.13
2018-12-29T19:27:58.944Z,20.07
2018-12-29T19:30:27.697Z,23.93
2018-12-29T19:32:56.432Z,21.00
2018-12-29T19:35:24.981Z,21.13
2018-12-29T19:37:53.780Z,21.83
2018-12-29T19:40:22.323Z,23.87
2018-12-29T19:42:51.208Z,22.20
2018-12-29T19:45:19.822Z,24.03
2018-12-29T19:47:49.440Z,22.40
2018-12-29T19:50:18.290Z,24.17
2018-12-29T19:52:46.867Z,21.37
2018-12-29T19:55:15.432Z,21.23
2018-12-29T19:57:44.146Z,20.73
2018-12-29T20:00:12.715Z,19.90
2018-12-29T20:02:42.390Z,20.40
2018-12-29T20:05:11.260Z,20.27
2018-12-29T20:07:39.770Z,19.23
2018-12-29T20:10:08.528Z,20.63
2018-12-29T20:12:37.150Z,21.27
2018-12-29T20:15:06.226Z,20.93
2018-12-29T20:17:35.325Z,20.43
2018-12-29T20:20:04.658Z,21.13
2018-12-29T20:22:33.189Z,21.53
2018-12-29T20:25:01.659Z,21.30
2018-12-29T20:27:30.211Z,22.10
2018-12-29T20:29:59.337Z,22.40
2018-12-29T20:32:27.881Z,20.17
2018-12-29T20:34:56.679Z,19.47
2018-12-29T20:37:25.224Z,21.40
2018-12-29T20:39:53.770Z,21.77
2018-12-29T20:42:22.308Z,22.50
2018-12-29T20:44:50.841Z,23.33
2018-12-29T20:47:19.397Z,23.20
2018-12-29T20:49:48.044Z,23.47
2018-12-29T20:52:16.545Z,24.70
2018-12-29T20:54:45.431Z,24.17
2018-12-29T20:57:14.264Z,23.50
2018-12-29T20:59:42.831Z,22.97
2018-12-29T21:02:11.371Z,21.13
2018-12-29T21:04:39.908Z,24.07
2018-12-29T21:07:08.418Z,21.73
2018-12-29T21:09:36.964Z,21.50
2018-12-29T21:12:05.481Z,19.77
2018-12-29T21:14:34.028Z,20.33
2018-12-29T21:17:02.580Z,20.50
2018-12-29T21:19:31.085Z,21.33
2018-12-29T21:21:59.635Z,20.80
2018-12-29T21:24:28.465Z,19.40
2018-12-29T21:26:57.022Z,17.90
2018-12-29T21:29:25.563Z,19.03
2018-12-29T21:31:54.125Z,18.23
2018-12-29T21:34:22.654Z,18.30
2018-12-29T21:36:51.186Z,18.00
2018-12-29T21:39:19.917Z,18.13
2018-12-29T21:41:48.427Z,17.80
2018-12-29T21:44:16.973Z,18.47
2018-12-29T21:46:45.505Z,19.37
2018-12-29T21:49:14.044Z,19.03
2018-12-29T21:51:42.577Z,16.93
2018-12-29T21:54:11.127Z,16.93
2018-12-29T21:56:39.651Z,17.83
2018-12-29T21:59:08.197Z,17.10
2018-12-29T22:01:36.723Z,17.37
2018-12-29T22:04:05.259Z,18.50
2018-12-29T22:06:33.993Z,16.73
2018-12-29T22:09:02.515Z,17.03
2018-12-29T22:11:31.053Z,16.87
2018-12-29T22:13:59.585Z,16.93
2018-12-29T22:16:28.118Z,16.90
2018-12-29T22:18:56.650Z,16.17
2018-12-29T22:21:25.196Z,16.10
2018-12-29T22:23:53.744Z,17.00
2018-12-29T22:26:22.289Z,17.27
2018-12-29T22:28:50.789Z,17.13
2018-12-29T22:31:19.321Z,17.60
2018-12-29T22:33:48.156Z,16.90
2018-12-29T22:36:16.697Z,17.13
2018-12-29T22:38:45.236Z,17.63
2018-12-29T22:41:13.763Z,17.90
2018-12-29T22:43:42.302Z,18.43
2018-12-29T22:46:10.826Z,18.37
2018-12-29T22:48:39.453Z,19.07
2018-12-29T22:51:07.990Z,18.80
2018-12-29T22:53:36.515Z,18.57
2018-12-29T22:56:05.048Z,18.70
2018-12-29T22:58:33.607Z,18.67
2018-12-29T23:01:02.336Z,19.80
2018-12-29T23:03:31.258Z,18.63
2018-12-29T23:05:59.801Z,18.37
2018-12-29T23:08:28.343Z,18.90
2018-12-29T23:10:57.178Z,17.20
2018-12-29T23:13:25.722Z,15.83
2018-12-29T23:15:54.269Z,15.83
2018-12-29T23:18:22.811Z,16.87
2018-12-29T23:20:51.337Z,16.77
2018-12-29T23:23:19.865Z,16.37
2018-12-29T23:25:48.593Z,16.20
2018-12-29T23:28:17.125Z,15.37
2018-12-29T23:30:45.661Z,15.90
2018-12-29T23:33:14.206Z,16.00
2018-12-29T23:35:42.745Z,16.60
2018-12-29T23:38:11.593Z,15.73
2018-12-29T23:40:40.121Z,15.33
2018-12-29T23:43:08.666Z,16.27
2018-12-29T23:45:37.392Z,16.17
2018-12-29T23:48:05.917Z,16.33
2018-12-29T23:50:34.465Z,16.80
2018-12-29T23:53:03.200Z,17.63
2018-12-29T23:55:31.938Z,17.13
2018-12-29T23:58:00.459Z,17.47
